CDT,Max TemperatureF,Mean TemperatureF,Min TemperatureF,Max Dew PointF,MeanDew PointF,Min DewpointF,Max Humidity, Mean Humidity, Min Humidity, Max Sea Level PressureIn, Mean Sea Level PressureIn, Min Sea Level PressureIn, Max VisibilityMiles, Mean VisibilityMiles, Min VisibilityMiles, Max Wind SpeedMPH, Mean Wind SpeedMPH, Max Gust SpeedMPH,PrecipitationIn, CloudCover, Events, WindDirDegrees
2013-4-1,42,34,25,33,18,9,89,55,26,30.33,30.26,30.12,10,10,5,22,13,28,0.05,1,Rain-Thunderstorm,15
2013-4-2,52,37,22,21,18,15,82,47,26,30.32,30.28,30.23,10,10,10,9,2,,0.00,0,,119
2013-4-3,53,41,29,24,20,17,70,44,24,30.34,30.28,30.22,10,10,10,12,5,,0.00,0,,156
2013-4-4,66,46,26,33,28,20,83,54,26,30.24,30.13,30.04,10,10,7,14,5,20,0.00,0,,308
2013-4-5,72,55,38,34,30,23,71,43,16,30.14,29.98,29.72,10,10,7,26,10,37,0.00,0,,143
2013-4-6,72,62,51,43,36,32,64,41,24,29.80,29.70,29.63,10,10,10,24,14,32,0.00,2,,245
2013-4-7,75,58,40,52,37,28,89,53,18,29.84,29.76,29.61,10,10,3,20,5,29,0.30,3,Rain-Thunderstorm,159
2013-4-8,74,60,47,60,55,45,92,80,49,29.70,29.66,29.63,10,8,2,16,6,22,0.00,6,,147
2013-4-9,66,50,33,60,46,33,100,88,75,29.99,29.74,29.55,10,6,1,25,15,32,0.59,7,Rain-Snow-Thunderstorm,27
2013-4-10,35,34,32,35,33,32,100,97,93,29.99,29.90,29.83,10,6,1,21,14,29,0.27,8,Rain-Snow-Thunderstorm,325
2013-4-11,38,34,30,34,30,26,99,86,63,29.85,29.74,29.70,10,10,7,20,14,29,0.01,8,Snow,295
2013-4-12,48,40,32,29,27,26,84,66,41,30.03,29.90,29.78,10,10,10,22,14,34,0.00,6,,314
2013-4-13,63,45,27,40,32,24,89,61,35,30.04,29.86,29.56,10,10,10,18,5,28,0.00,4,Thunderstorm,141
2013-4-14,67,55,43,45,35,18,66,44,18,29.72,29.49,29.32,10,10,10,33,16,41,0.00,2,Thunderstorm,226
2013-4-15,48,40,32,28,23,16,79,48,32,30.06,29.90,29.72,10,10,10,18,8,22,0.00,6,,337
2013-4-16,49,41,33,30,26,21,79,54,34,30.21,30.13,30.04,10,10,10,18,10,25,0.00,7,,52
2013-4-17,45,41,37,41,38,30,100,90,54,30.11,29.90,29.70,10,7,1,26,12,37,0.79,8,Rain-Thunderstorm,23
2013-4-18,38,35,32,36,31,27,98,86,68,29.97,29.84,29.73,10,8,2,32,22,40,0.30,8,Rain-Snow-Thunderstorm,328
2013-4-19,50,40,29,27,23,16,83,57,28,30.11,29.99,29.93,10,10,10,23,14,31,0.00,3,,314
2013-4-20,50,37,24,29,24,20,88,57,34,30.22,30.14,30.08,10,10,10,17,6,24,0.00,4,,102
2013-4-21,69,56,44,49,36,29,88,47,25,30.11,30.07,30.00,10,10,7,26,15,39,0.01,5,Rain-Thunderstorm,174
2013-4-22,55,44,34,50,44,31,96,91,75,30.23,30.05,29.94,10,9,2,26,11,34,0.76,8,Rain-Thunderstorm,76
2013-4-23,41,36,30,31,25,21,88,70,48,30.24,30.19,30.15,10,10,3,24,19,33,0.00,7,Snow,357
2013-4-24,61,43,25,33,23,17,86,56,18,30.23,30.17,30.06,10,10,10,37,8,44,0.00,1,,266
2013-4-25,70,50,29,36,30,24,90,51,18,30.27,30.17,30.03,10,10,5,23,6,34,0.00,0,,192
2013-4-26,68,58,48,47,41,33,89,57,43,30.19,30.10,30.04,10,10,10,20,12,29,0.00,1,Thunderstorm,176
2013-4-27,66,54,42,50,46,40,94,75,46,30.20,30.09,29.97,10,8,4,9,3,,0.00,4,,166
2013-4-28,80,63,46,54,48,42,95,62,27,29.97,29.83,29.71,10,8,0,23,10,31,0.00,1,Fog,179
2013-4-29,84,66,49,54,49,43,92,55,24,29.78,29.67,29.55,10,10,7,16,6,17,0.00,0,,171
2013-4-30,78,70,63,54,48,40,55,43,33,29.84,29.67,29.53,10,10,10,26,13,33,0.00,3,,243